createdAt,value
2022-10-06T00:01:17.696Z,8.60
2022-10-06T00:06:19.291Z,6.60
2022-10-06T00:11:20.815Z,7.22
2022-10-06T00:16:22.425Z,7.47
2022-10-06T00:21:24.108Z,6.22
2022-10-06T00:26:25.659Z,8.85
2022-10-06T00:31:27.252Z,8.27
2022-10-06T00:36:28.828Z,9.23
2022-10-06T00:41:30.369Z,11.73
2022-10-06T00:46:31.985Z,8.30
2022-10-06T00:51:33.536Z,7.72
2022-10-06T00:56:35.092Z,9.07
2022-10-06T01:01:36.702Z,10.05
2022-10-06T01:06:38.304Z,7.47
2022-10-06T01:11:39.822Z,8.18
2022-10-06T01:16:41.341Z,6.50
2022-10-06T01:21:42.882Z,6.68
2022-10-06T01:26:44.427Z,6.20
2022-10-06T01:31:46.008Z,6.72
2022-10-06T01:36:47.521Z,6.18
2022-10-06T01:41:49.059Z,6.68
2022-10-06T01:46:50.614Z,9.68
2022-10-06T01:51:52.159Z,7.20
2022-10-06T01:56:53.685Z,5.60
2022-10-06T02:01:55.445Z,5.28
2022-10-06T02:06:57.108Z,6.88
2022-10-06T02:11:58.627Z,4.93
2022-10-06T02:17:00.147Z,5.72
2022-10-06T02:22:01.637Z,8.65
2022-10-06T02:27:03.160Z,7.90
2022-10-06T02:32:04.702Z,6.32
2022-10-06T02:37:06.218Z,7.82
2022-10-06T02:42:07.764Z,6.15
2022-10-06T02:47:09.296Z,7.38
2022-10-06T02:52:10.789Z,6.70
2022-10-06T02:57:12.321Z,7.75
2022-10-06T03:02:13.937Z,7.35
2022-10-06T03:07:15.552Z,7.55
2022-10-06T03:12:17.089Z,6.63
2022-10-06T03:17:18.624Z,8.40
2022-10-06T03:22:20.159Z,8.02
2022-10-06T03:27:21.687Z,8.73
2022-10-06T03:32:23.210Z,8.52
2022-10-06T03:37:24.736Z,7.38
2022-10-06T03:42:26.250Z,7.80
2022-10-06T03:47:27.757Z,8.00
2022-10-06T03:52:29.306Z,8.23
2022-10-06T03:57:30.840Z,7.20
2022-10-06T04:02:32.372Z,6.13
2022-10-06T04:07:33.927Z,10.05
2022-10-06T04:12:35.454Z,7.22
2022-10-06T04:17:36.978Z,9.73
2022-10-06T04:22:38.502Z,8.80
2022-10-06T04:27:40.029Z,8.07
2022-10-06T04:32:41.582Z,9.13
2022-10-06T04:37:43.090Z,11.23
2022-10-06T04:42:44.639Z,6.05
2022-10-06T04:47:46.176Z,6.82
2022-10-06T04:52:47.702Z,9.23
2022-10-06T04:57:49.241Z,9.07
2022-10-06T05:02:50.792Z,9.43
2022-10-06T05:07:52.319Z,10.55
2022-10-06T05:12:53.858Z,7.47
2022-10-06T05:17:55.456Z,11.95
2022-10-06T05:22:57.002Z,8.48
2022-10-06T05:27:58.562Z,11.65
2022-10-06T05:33:02.387Z,12.63
2022-10-06T05:38:03.902Z,10.00
2022-10-06T05:43:05.440Z,9.50
2022-10-06T05:48:06.995Z,12.10
2022-10-06T05:53:08.538Z,9.35
2022-10-06T05:58:10.102Z,6.63
2022-10-06T06:03:11.652Z,12.30
2022-10-06T06:08:13.185Z,9.48
2022-10-06T06:13:14.753Z,7.93
2022-10-06T06:18:16.295Z,8.77
2022-10-06T06:23:17.831Z,7.40
2022-10-06T06:28:19.421Z,9.18
2022-10-06T06:33:20.979Z,8.07
2022-10-06T06:38:22.510Z,6.07
2022-10-06T06:43:24.004Z,11.95
2022-10-06T06:48:25.524Z,9.43
2022-10-06T06:53:27.042Z,6.53
2022-10-06T06:58:28.900Z,8.23
2022-10-06T07:03:56.129Z,10.70
2022-10-06T07:08:52.417Z,8.30
2022-10-06T07:13:53.936Z,7.57
2022-10-06T07:18:55.461Z,7.28
2022-10-06T07:23:56.999Z,6.80
2022-10-06T07:28:58.522Z,6.85
2022-10-06T07:34:02.058Z,12.80
2022-10-06T07:39:03.661Z,7.35
2022-10-06T07:44:08.046Z,7.55
2022-10-06T07:49:10.922Z,7.53
2022-10-06T07:54:12.429Z,6.60
2022-10-06T07:59:13.977Z,8.85
2022-10-06T08:04:15.498Z,5.20
2022-10-06T08:09:17.004Z,8.25
2022-10-06T08:14:18.521Z,4.07
2022-10-06T08:19:20.047Z,7.03
2022-10-06T08:24:21.877Z,7.43
2022-10-06T08:29:23.607Z,8.40
2022-10-06T08:34:25.147Z,6.57
2022-10-06T08:39:26.682Z,5.18
2022-10-06T08:44:28.209Z,7.40
2022-10-06T08:49:29.732Z,5.85
2022-10-06T08:54:31.250Z,5.07
2022-10-06T08:59:32.755Z,9.40
2022-10-06T09:04:34.277Z,8.40
2022-10-06T09:09:35.812Z,8.15
2022-10-06T09:14:37.365Z,4.15
2022-10-06T09:19:38.882Z,7.25
2022-10-06T09:24:44.771Z,7.78
2022-10-06T09:29:48.583Z,5.20
2022-10-06T09:34:50.109Z,7.40
2022-10-06T09:39:51.634Z,8.88
2022-10-06T09:44:53.168Z,5.53
2022-10-06T09:49:54.969Z,5.15
2022-10-06T09:54:56.563Z,4.80
2022-10-06T09:59:58.676Z,8.73
2022-10-06T10:05:00.554Z,10.38
2022-10-06T10:10:02.088Z,4.63
2022-10-06T10:15:03.649Z,3.28
2022-10-06T10:20:05.202Z,3.40
2022-10-06T10:25:06.752Z,5.30
2022-10-06T10:30:08.292Z,3.95
2022-10-06T10:35:09.817Z,3.95
2022-10-06T10:40:11.336Z,4.68
2022-10-06T10:45:12.874Z,3.35
2022-10-06T10:50:14.489Z,2.83
2022-10-06T10:55:16.027Z,2.92
2022-10-06T11:00:17.558Z,4.05
2022-10-06T11:05:19.091Z,4.22
2022-10-06T11:10:20.692Z,5.28
2022-10-06T11:15:22.224Z,3.53
2022-10-06T11:20:23.760Z,2.65
2022-10-06T11:25:25.288Z,3.50
2022-10-06T11:30:26.833Z,6.85
2022-10-06T11:35:28.344Z,3.50
2022-10-06T11:40:29.958Z,2.95
2022-10-06T11:45:31.479Z,3.80
2022-10-06T11:50:33.033Z,3.00
2022-10-06T11:55:34.538Z,2.45
2022-10-06T12:00:36.095Z,5.15
2022-10-06T12:05:55.833Z,3.85
2022-10-06T12:10:57.998Z,1.65
2022-10-06T12:21:21.319Z,1.83
2022-10-06T12:26:22.900Z,4.10
2022-10-06T12:31:24.500Z,1.77
2022-10-06T12:36:26.012Z,6.60
2022-10-06T12:41:27.561Z,5.95
2022-10-06T12:46:29.179Z,4.85
2022-10-06T12:51:30.776Z,8.82
2022-10-06T12:56:32.312Z,5.15
2022-10-06T13:01:33.882Z,5.88
2022-10-06T13:06:35.430Z,2.30
2022-10-06T13:11:36.953Z,4.13
2022-10-06T13:16:38.550Z,5.40
2022-10-06T13:21:42.171Z,2.05
2022-10-06T13:26:43.725Z,2.83
2022-10-06T13:31:48.899Z,2.28
2022-10-06T13:36:53.628Z,2.65
2022-10-06T13:41:55.187Z,5.60
2022-10-06T13:46:56.757Z,2.25
2022-10-06T13:51:58.294Z,4.28
2022-10-06T13:56:59.817Z,2.22
2022-10-06T14:02:01.418Z,3.20
2022-10-06T14:07:02.956Z,6.63
2022-10-06T14:12:04.482Z,4.38
2022-10-06T14:17:06.005Z,6.72
2022-10-06T14:22:07.544Z,6.68
2022-10-06T14:27:09.081Z,9.15
2022-10-06T14:32:10.645Z,1.38
2022-10-06T14:37:12.192Z,6.07
2022-10-06T14:47:30.033Z,4.80
2022-10-06T14:52:31.569Z,5.40
2022-10-06T14:57:33.109Z,6.75
2022-10-06T15:02:34.702Z,5.15
2022-10-06T15:07:36.265Z,3.45
2022-10-06T15:12:37.778Z,8.48
2022-10-06T15:17:39.324Z,4.68
2022-10-06T15:22:41.035Z,5.85
2022-10-06T15:27:42.571Z,8.38
2022-10-06T15:32:44.079Z,5.40
2022-10-06T15:37:45.624Z,5.25
2022-10-06T15:42:47.145Z,7.47
2022-10-06T15:47:48.641Z,3.60
2022-10-06T15:52:50.143Z,5.50
2022-10-06T15:57:51.653Z,4.15
2022-10-06T16:02:53.225Z,4.57
2022-10-06T16:07:54.795Z,6.22
2022-10-06T16:12:56.331Z,4.38
2022-10-06T16:17:57.857Z,3.90
2022-10-06T16:22:59.382Z,6.40
2022-10-06T16:28:00.984Z,4.43
2022-10-06T16:33:02.557Z,7.07
2022-10-06T16:38:04.088Z,5.65
2022-10-06T16:43:05.644Z,7.00
2022-10-06T16:48:07.185Z,5.50
2022-10-06T16:53:09.875Z,7.72
2022-10-06T16:58:12.927Z,7.10
2022-10-06T17:03:14.441Z,5.68
2022-10-06T17:08:15.963Z,7.07
2022-10-06T17:13:17.478Z,7.28
2022-10-06T17:18:19.015Z,7.53
2022-10-06T17:23:20.541Z,7.60
2022-10-06T17:28:22.129Z,7.15
2022-10-06T17:33:23.703Z,9.55
2022-10-06T17:38:25.232Z,9.15
2022-10-06T17:43:26.790Z,8.32
2022-10-06T17:48:28.327Z,11.05
2022-10-06T17:53:29.853Z,5.85
2022-10-06T17:58:31.391Z,10.63
2022-10-06T18:03:32.923Z,11.15
2022-10-06T18:08:34.463Z,12.05
2022-10-06T18:13:36.002Z,11.70
2022-10-06T18:18:37.606Z,11.73
2022-10-06T18:23:39.165Z,12.52
2022-10-06T18:28:40.713Z,10.93
2022-10-06T18:35:57.588Z,11.95
2022-10-06T18:39:03.788Z,13.82
2022-10-06T18:44:05.335Z,11.20
2022-10-06T18:49:06.866Z,14.02
2022-10-06T18:54:08.442Z,14.45
2022-10-06T18:59:09.974Z,13.88
2022-10-06T19:04:11.508Z,14.00
2022-10-06T19:09:13.037Z,12.48
2022-10-06T19:14:14.547Z,18.00
2022-10-06T19:19:16.089Z,27.02
2022-10-06T19:24:17.636Z,21.85
2022-10-06T19:29:19.198Z,23.42
2022-10-06T19:34:20.714Z,16.40
2022-10-06T19:39:22.217Z,36.47
2022-10-06T19:44:24.322Z,69.45
2022-10-06T19:49:25.866Z,52.92
2022-10-06T19:54:27.434Z,37.95
2022-10-06T19:59:28.951Z,33.17
2022-10-06T20:04:30.552Z,32.88
2022-10-06T20:09:32.161Z,42.20
2022-10-06T20:14:33.698Z,33.55
2022-10-06T20:19:35.267Z,25.30
2022-10-06T20:24:36.811Z,28.55
2022-10-06T20:29:38.427Z,23.95
2022-10-06T20:34:40.093Z,26.85
2022-10-06T20:39:41.707Z,21.38
2022-10-06T20:44:43.362Z,24.25
2022-10-06T20:49:44.906Z,26.98
2022-10-06T20:54:46.464Z,22.92
2022-10-06T20:59:48.009Z,27.48
2022-10-06T21:04:49.577Z,24.75
2022-10-06T21:09:52.347Z,20.00
2022-10-06T21:14:54.031Z,25.10
2022-10-06T21:19:55.573Z,23.20
2022-10-06T21:24:57.141Z,30.48
2022-10-06T21:29:58.715Z,21.15
2022-10-06T21:35:00.292Z,32.63
2022-10-06T21:40:02.719Z,25.10
2022-10-06T21:45:04.387Z,22.35
2022-10-06T21:50:05.947Z,20.30
2022-10-06T21:55:07.508Z,23.67
2022-10-06T22:00:09.067Z,28.90
2022-10-06T22:05:10.645Z,28.55
2022-10-06T22:10:12.229Z,24.55
2022-10-06T22:15:13.792Z,27.92
2022-10-06T22:20:15.384Z,28.52
2022-10-06T22:25:16.957Z,24.10
2022-10-06T22:30:18.529Z,24.35
2022-10-06T22:35:20.105Z,26.83
2022-10-06T22:40:21.671Z,28.60
2022-10-06T22:45:23.226Z,37.17
2022-10-06T22:50:24.797Z,41.45
2022-10-06T22:55:26.389Z,42.38
2022-10-06T23:00:28.012Z,45.38
2022-10-06T23:05:29.593Z,39.65
2022-10-06T23:10:31.158Z,39.83
2022-10-06T23:15:32.705Z,43.38
2022-10-06T23:20:34.276Z,39.25
2022-10-06T23:25:35.845Z,41.35
2022-10-06T23:30:37.413Z,38.42
2022-10-06T23:35:38.953Z,38.78
2022-10-06T23:40:40.519Z,41.08
2022-10-06T23:45:42.173Z,37.85
2022-10-06T23:50:43.774Z,35.80
2022-10-06T23:55:45.364Z,38.97
